sensor_id;sensor_type;location;lat;lon;timestamp;temperature;humidity
9658;DHT22;4867;48.112;11.622;2024-02-21T00:02:17;4.30;99.90
9658;DHT22;4867;48.112;11.622;2024-02-21T00:04:46;4.40;99.90
9658;DHT22;4867;48.112;11.622;2024-02-21T00:07:17;4.40;99.90
9658;DHT22;4867;48.112;11.622;2024-02-21T00:09:45;4.40;99.90
9658;DHT22;4867;48.112;11.622;2024-02-21T00:12:13;4.50;99.90
9658;DHT22;4867;48.112;11.622;2024-02-21T00:14:41;4.40;99.90
9658;DHT22;4867;48.112;11.622;2024-02-21T00:17:08;4.50;99.90
9658;DHT22;4867;48.112;11.622;2024-02-21T00:19:39;4.50;99.90
9658;DHT22;4867;48.112;11.622;2024-02-21T00:22:10;4.50;99.90
9658;DHT22;4867;48.112;11.622;2024-02-21T00:24:39;4.60;99.90
9658;DHT22;4867;48.112;11.622;2024-02-21T00:27:06;4.60;99.90
9658;DHT22;4867;48.112;11.622;2024-02-21T00:29:49;4.60;99.90
9658;DHT22;4867;48.112;11.622;2024-02-21T00:32:18;4.60;99.90
9658;DHT22;4867;48.112;11.622;2024-02-21T00:34:47;4.70;99.90
9658;DHT22;4867;48.112;11.622;2024-02-21T00:37:15;4.70;99.90
9658;DHT22;4867;48.112;11.622;2024-02-21T00:39:45;4.70;99.90
9658;DHT22;4867;48.112;11.622;2024-02-21T00:42:16;4.70;99.90
9658;DHT22;4867;48.112;11.622;2024-02-21T00:44:45;4.70;99.90
9658;DHT22;4867;48.112;11.622;2024-02-21T00:47:12;4.70;99.90
9658;DHT22;4867;48.112;11.622;2024-02-21T00:49:41;4.70;99.90
9658;DHT22;4867;48.112;11.622;2024-02-21T00:52:09;4.70;99.90
9658;DHT22;4867;48.112;11.622;2024-02-21T00:54:40;4.60;99.90
9658;DHT22;4867;48.112;11.622;2024-02-21T00:57:22;4.60;99.90
9658;DHT22;4867;48.112;11.622;2024-02-21T00:59:53;4.60;99.90
9658;DHT22;4867;48.112;11.622;2024-02-21T01:02:22;4.60;99.90
9658;DHT22;4867;48.112;11.622;2024-02-21T01:04:51;4.60;99.90
9658;DHT22;4867;48.112;11.622;2024-02-21T01:07:20;4.60;99.90
9658;DHT22;4867;48.112;11.622;2024-02-21T01:09:48;4.70;99.90
9658;DHT22;4867;48.112;11.622;2024-02-21T01:12:26;4.70;99.90
9658;DHT22;4867;48.112;11.622;2024-02-21T01:14:59;4.70;99.90
9658;DHT22;4867;48.112;11.622;2024-02-21T01:17:40;4.70;99.90
9658;DHT22;4867;48.112;11.622;2024-02-21T01:20:10;4.80;99.90
9658;DHT22;4867;48.112;11.622;2024-02-21T01:22:49;4.80;99.90
9658;DHT22;4867;48.112;11.622;2024-02-21T01:25:17;4.80;99.90
9658;DHT22;4867;48.112;11.622;2024-02-21T01:27:47;4.90;99.90
9658;DHT22;4867;48.112;11.622;2024-02-21T01:30:14;4.80;99.90
9658;DHT22;4867;48.112;11.622;2024-02-21T01:32:43;4.90;99.90
9658;DHT22;4867;48.112;11.622;2024-02-21T01:35:11;4.90;99.90
9658;DHT22;4867;48.112;11.622;2024-02-21T01:37:40;4.90;99.90
9658;DHT22;4867;48.112;11.622;2024-02-21T01:40:09;5.00;99.90
9658;DHT22;4867;48.112;11.622;2024-02-21T01:42:40;5.00;99.90
9658;DHT22;4867;48.112;11.622;2024-02-21T01:45:11;5.00;99.90
9658;DHT22;4867;48.112;11.622;2024-02-21T01:47:42;5.00;99.90
9658;DHT22;4867;48.112;11.622;2024-02-21T01:50:14;5.00;99.90
9658;DHT22;4867;48.112;11.622;2024-02-21T01:52:46;5.00;99.90
9658;DHT22;4867;48.112;11.622;2024-02-21T01:55:20;5.00;99.90
9658;DHT22;4867;48.112;11.622;2024-02-21T01:57:48;5.00;99.90
9658;DHT22;4867;48.112;11.622;2024-02-21T02:00:20;5.00;99.90
9658;DHT22;4867;48.112;11.622;2024-02-21T02:02:52;5.00;99.90
9658;DHT22;4867;48.112;11.622;2024-02-21T02:05:24;5.00;99.90
9658;DHT22;4867;48.112;11.622;2024-02-21T02:07:51;5.00;99.90
9658;DHT22;4867;48.112;11.622;2024-02-21T02:10:19;5.00;99.90
9658;DHT22;4867;48.112;11.622;2024-02-21T02:12:46;5.10;99.90
9658;DHT22;4867;48.112;11.622;2024-02-21T02:15:14;5.10;99.90
9658;DHT22;4867;48.112;11.622;2024-02-21T02:17:42;5.00;99.90
9658;DHT22;4867;48.112;11.622;2024-02-21T02:20:10;5.10;99.90
9658;DHT22;4867;48.112;11.622;2024-02-21T02:22:39;5.00;99.90
9658;DHT22;4867;48.112;11.622;2024-02-21T02:25:08;5.00;99.90
9658;DHT22;4867;48.112;11.622;2024-02-21T02:27:42;5.00;99.90
9658;DHT22;4867;48.112;11.622;2024-02-21T02:30:12;5.10;99.90
9658;DHT22;4867;48.112;11.622;2024-02-21T02:32:42;5.10;99.90
9658;DHT22;4867;48.112;11.622;2024-02-21T02:35:10;5.10;99.90
9658;DHT22;4867;48.112;11.622;2024-02-21T02:37:37;4.90;99.90
9658;DHT22;4867;48.112;11.622;2024-02-21T02:40:09;5.00;99.90
9658;DHT22;4867;48.112;11.622;2024-02-21T02:42:37;5.00;99.90
9658;DHT22;4867;48.112;11.622;2024-02-21T02:45:05;5.00;99.90
9658;DHT22;4867;48.112;11.622;2024-02-21T02:47:32;4.90;99.90
9658;DHT22;4867;48.112;11.622;2024-02-21T02:50:02;5.00;99.90
9658;DHT22;4867;48.112;11.622;2024-02-21T02:52:37;4.90;99.90
9658;DHT22;4867;48.112;11.622;2024-02-21T02:55:06;5.00;99.90
9658;DHT22;4867;48.112;11.622;2024-02-21T02:57:34;4.90;99.90
9658;DHT22;4867;48.112;11.622;2024-02-21T03:00:01;4.90;99.90
9658;DHT22;4867;48.112;11.622;2024-02-21T03:02:30;5.00;99.90
9658;DHT22;4867;48.112;11.622;2024-02-21T03:04:58;5.00;99.90
9658;DHT22;4867;48.112;11.622;2024-02-21T03:07:26;5.00;99.90
9658;DHT22;4867;48.112;11.622;2024-02-21T03:09:54;5.00;99.90
9658;DHT22;4867;48.112;11.622;2024-02-21T03:12:22;5.00;99.90
9658;DHT22;4867;48.112;11.622;2024-02-21T03:15:03;5.00;99.90
9658;DHT22;4867;48.112;11.622;2024-02-21T03:17:32;4.90;99.90
9658;DHT22;4867;48.112;11.622;2024-02-21T03:20:03;5.00;99.90
9658;DHT22;4867;48.112;11.622;2024-02-21T03:22:40;4.90;99.90
9658;DHT22;4867;48.112;11.622;2024-02-21T03:25:28;4.90;99.90
9658;DHT22;4867;48.112;11.622;2024-02-21T03:27:56;4.90;99.90
9658;DHT22;4867;48.112;11.622;2024-02-21T03:30:26;4.90;99.90
9658;DHT22;4867;48.112;11.622;2024-02-21T03:32:57;5.00;99.90
9658;DHT22;4867;48.112;11.622;2024-02-21T03:35:25;5.00;99.90
9658;DHT22;4867;48.112;11.622;2024-02-21T03:37:55;5.00;99.90
9658;DHT22;4867;48.112;11.622;2024-02-21T03:40:22;5.00;99.90
9658;DHT22;4867;48.112;11.622;2024-02-21T03:42:50;5.00;99.90
9658;DHT22;4867;48.112;11.622;2024-02-21T03:45:18;5.10;99.90
9658;DHT22;4867;48.112;11.622;2024-02-21T03:47:46;5.00;99.90
9658;DHT22;4867;48.112;11.622;2024-02-21T03:50:14;5.10;99.90
9658;DHT22;4867;48.112;11.622;2024-02-21T03:52:42;5.10;99.90
9658;DHT22;4867;48.112;11.622;2024-02-21T03:55:13;5.10;99.90
9658;DHT22;4867;48.112;11.622;2024-02-21T03:57:48;5.00;99.90
9658;DHT22;4867;48.112;11.622;2024-02-21T04:00:21;5.10;99.90
9658;DHT22;4867;48.112;11.622;2024-02-21T04:02:49;5.10;99.90
9658;DHT22;4867;48.112;11.622;2024-02-21T04:05:16;5.10;99.90
9658;DHT22;4867;48.112;11.622;2024-02-21T04:07:44;5.10;99.90
9658;DHT22;4867;48.112;11.622;2024-02-21T04:10:13;5.10;99.90
9658;DHT22;4867;48.112;11.622;2024-02-21T04:12:56;5.10;99.90
9658;DHT22;4867;48.112;11.622;2024-02-21T04:15:23;5.10;99.90
9658;DHT22;4867;48.112;11.622;2024-02-21T04:17:51;5.10;99.90
9658;DHT22;4867;48.112;11.622;2024-02-21T04:20:20;5.00;99.90
9658;DHT22;4867;48.112;11.622;2024-02-21T04:22:49;5.00;99.90
9658;DHT22;4867;48.112;11.622;2024-02-21T04:25:22;5.00;99.90
9658;DHT22;4867;48.112;11.622;2024-02-21T04:27:50;5.00;99.90
9658;DHT22;4867;48.112;11.622;2024-02-21T04:30:17;5.00;99.90
9658;DHT22;4867;48.112;11.622;2024-02-21T04:32:45;5.00;99.90
9658;DHT22;4867;48.112;11.622;2024-02-21T04:35:12;5.00;99.90
9658;DHT22;4867;48.112;11.622;2024-02-21T04:37:40;5.00;99.90
9658;DHT22;4867;48.112;11.622;2024-02-21T04:40:08;4.90;99.90
9658;DHT22;4867;48.112;11.622;2024-02-21T04:42:37;4.80;99.90
9658;DHT22;4867;48.112;11.622;2024-02-21T04:45:04;4.90;99.90
9658;DHT22;4867;48.112;11.622;2024-02-21T04:47:32;4.80;99.90
9658;DHT22;4867;48.112;11.622;2024-02-21T04:49:59;4.80;99.90
9658;DHT22;4867;48.112;11.622;2024-02-21T04:52:27;4.80;99.90
9658;DHT22;4867;48.112;11.622;2024-02-21T04:54:54;4.70;99.90
9658;DHT22;4867;48.112;11.622;2024-02-21T04:57:23;4.70;99.90
9658;DHT22;4867;48.112;11.622;2024-02-21T05:00:00;4.60;99.90
9658;DHT22;4867;48.112;11.622;2024-02-21T05:02:28;4.70;99.90
9658;DHT22;4867;48.112;11.622;2024-02-21T05:04:55;4.50;99.90
9658;DHT22;4867;48.112;11.622;2024-02-21T05:07:32;4.50;99.90
9658;DHT22;4867;48.112;11.622;2024-02-21T05:10:06;4.50;99.90
9658;DHT22;4867;48.112;11.622;2024-02-21T05:12:42;4.50;99.90
9658;DHT22;4867;48.112;11.622;2024-02-21T05:15:11;4.50;99.90
9658;DHT22;4867;48.112;11.622;2024-02-21T05:17:40;4.40;99.90
9658;DHT22;4867;48.112;11.622;2024-02-21T05:20:12;4.40;99.90
9658;DHT22;4867;48.112;11.622;2024-02-21T05:22:51;4.40;99.90
9658;DHT22;4867;48.112;11.622;2024-02-21T05:25:23;4.40;99.90
9658;DHT22;4867;48.112;11.622;2024-02-21T05:27:53;4.40;99.90
9658;DHT22;4867;48.112;11.622;2024-02-21T05:30:21;4.30;99.90
9658;DHT22;4867;48.112;11.622;2024-02-21T05:32:50;4.30;99.90
9658;DHT22;4867;48.112;11.622;2024-02-21T05:35:25;4.30;99.90
9658;DHT22;4867;48.112;11.622;2024-02-21T05:37:58;4.30;99.90
9658;DHT22;4867;48.112;11.622;2024-02-21T05:40:28;4.20;99.90
9658;DHT22;4867;48.112;11.622;2024-02-21T05:42:55;4.10;99.90
9658;DHT22;4867;48.112;11.622;2024-02-21T05:45:23;4.20;99.90
9658;DHT22;4867;48.112;11.622;2024-02-21T05:47:52;4.10;99.90
9658;DHT22;4867;48.112;11.622;2024-02-21T05:50:27;4.10;99.90
9658;DHT22;4867;48.112;11.622;2024-02-21T05:53:15;4.20;99.90
9658;DHT22;4867;48.112;11.622;2024-02-21T05:55:47;4.10;99.90
9658;DHT22;4867;48.112;11.622;2024-02-21T05:58:18;4.10;99.90
9658;DHT22;4867;48.112;11.622;2024-02-21T06:00:47;4.10;99.90
9658;DHT22;4867;48.112;11.622;2024-02-21T06:03:22;4.00;99.90
9658;DHT22;4867;48.112;11.622;2024-02-21T06:05:50;4.00;99.90
9658;DHT22;4867;48.112;11.622;2024-02-21T06:08:18;4.00;99.90
9658;DHT22;4867;48.112;11.622;2024-02-21T06:10:51;4.00;99.90
9658;DHT22;4867;48.112;11.622;2024-02-21T06:13:23;4.00;99.90
9658;DHT22;4867;48.112;11.622;2024-02-21T06:16:02;3.90;99.90
9658;DHT22;4867;48.112;11.622;2024-02-21T06:18:31;3.90;99.90
9658;DHT22;4867;48.112;11.622;2024-02-21T06:20:58;3.90;99.90
9658;DHT22;4867;48.112;11.622;2024-02-21T06:23:26;3.80;99.90
9658;DHT22;4867;48.112;11.622;2024-02-21T06:25:54;3.90;99.90
9658;DHT22;4867;48.112;11.622;2024-02-21T06:28:24;3.90;99.90
9658;DHT22;4867;48.112;11.622;2024-02-21T06:30:55;3.90;99.90
9658;DHT22;4867;48.112;11.622;2024-02-21T06:33:23;3.90;99.90
9658;DHT22;4867;48.112;11.622;2024-02-21T06:35:53;4.10;99.90
9658;DHT22;4867;48.112;11.622;2024-02-21T06:38:21;4.20;99.90
9658;DHT22;4867;48.112;11.622;2024-02-21T06:40:48;4.30;99.90
9658;DHT22;4867;48.112;11.622;2024-02-21T06:43:22;4.40;99.90
9658;DHT22;4867;48.112;11.622;2024-02-21T06:45:49;4.40;99.90
9658;DHT22;4867;48.112;11.622;2024-02-21T06:48:23;4.50;99.90
9658;DHT22;4867;48.112;11.622;2024-02-21T06:50:55;4.50;99.90
9658;DHT22;4867;48.112;11.622;2024-02-21T06:53:22;4.60;99.90
9658;DHT22;4867;48.112;11.622;2024-02-21T06:56:02;4.60;99.90
9658;DHT22;4867;48.112;11.622;2024-02-21T06:58:30;4.70;99.90
9658;DHT22;4867;48.112;11.622;2024-02-21T07:00:57;4.80;99.90
9658;DHT22;4867;48.112;11.622;2024-02-21T07:03:29;4.90;99.90
9658;DHT22;4867;48.112;11.622;2024-02-21T07:05:58;5.00;99.90
9658;DHT22;4867;48.112;11.622;2024-02-21T07:08:26;5.00;99.90
9658;DHT22;4867;48.112;11.622;2024-02-21T07:10:54;5.10;99.90
9658;DHT22;4867;48.112;11.622;2024-02-21T07:13:22;5.20;99.90
9658;DHT22;4867;48.112;11.622;2024-02-21T07:15:50;5.20;99.90
9658;DHT22;4867;48.112;11.622;2024-02-21T07:18:20;5.30;99.90
9658;DHT22;4867;48.112;11.622;2024-02-21T07:20:53;5.40;99.90
9658;DHT22;4867;48.112;11.622;2024-02-21T07:23:22;5.60;99.90
9658;DHT22;4867;48.112;11.622;2024-02-21T07:26:00;5.60;99.90
9658;DHT22;4867;48.112;11.622;2024-02-21T07:28:28;5.70;99.90
9658;DHT22;4867;48.112;11.622;2024-02-21T07:30:58;5.80;99.90
9658;DHT22;4867;48.112;11.622;2024-02-21T07:33:26;5.90;99.90
9658;DHT22;4867;48.112;11.622;2024-02-21T07:35:55;6.00;99.90
9658;DHT22;4867;48.112;11.622;2024-02-21T07:38:25;6.00;99.90
9658;DHT22;4867;48.112;11.622;2024-02-21T07:40:54;6.10;99.90
9658;DHT22;4867;48.112;11.622;2024-02-21T07:43:24;6.10;99.90
9658;DHT22;4867;48.112;11.622;2024-02-21T07:45:56;6.10;99.90
9658;DHT22;4867;48.112;11.622;2024-02-21T07:48:33;6.10;99.90
9658;DHT22;4867;48.112;11.622;2024-02-21T07:51:02;6.00;99.90
9658;DHT22;4867;48.112;11.622;2024-02-21T07:53:31;6.00;99.90
9658;DHT22;4867;48.112;11.622;2024-02-21T07:56:00;5.90;99.90
9658;DHT22;4867;48.112;11.622;2024-02-21T07:58:28;6.00;99.90
9658;DHT22;4867;48.112;11.622;2024-02-21T08:00:57;5.90;99.90
9658;DHT22;4867;48.112;11.622;2024-02-21T08:03:25;5.90;99.90
9658;DHT22;4867;48.112;11.622;2024-02-21T08:05:53;5.90;99.90
9658;DHT22;4867;48.112;11.622;2024-02-21T08:08:21;6.00;99.90
9658;DHT22;4867;48.112;11.622;2024-02-21T08:10:49;6.10;99.90
9658;DHT22;4867;48.112;11.622;2024-02-21T08:13:17;6.10;99.90
9658;DHT22;4867;48.112;11.622;2024-02-21T08:15:44;6.20;99.90
9658;DHT22;4867;48.112;11.622;2024-02-21T08:18:12;6.30;99.90
9658;DHT22;4867;48.112;11.622;2024-02-21T08:20:39;6.40;99.90
9658;DHT22;4867;48.112;11.622;2024-02-21T08:23:07;6.40;99.90
9658;DHT22;4867;48.112;11.622;2024-02-21T08:25:34;6.60;99.90
9658;DHT22;4867;48.112;11.622;2024-02-21T08:28:02;6.60;99.90
9658;DHT22;4867;48.112;11.622;2024-02-21T08:30:30;6.70;99.90
9658;DHT22;4867;48.112;11.622;2024-02-21T08:32:57;6.80;99.90
9658;DHT22;4867;48.112;11.622;2024-02-21T08:35:25;6.90;99.90
9658;DHT22;4867;48.112;11.622;2024-02-21T08:37:52;7.10;99.90
9658;DHT22;4867;48.112;11.622;2024-02-21T08:40:20;7.20;99.90
9658;DHT22;4867;48.112;11.622;2024-02-21T08:42:49;7.30;99.90
9658;DHT22;4867;48.112;11.622;2024-02-21T08:45:17;7.40;99.90
9658;DHT22;4867;48.112;11.622;2024-02-21T08:47:44;7.50;99.90
9658;DHT22;4867;48.112;11.622;2024-02-21T08:50:12;7.70;99.90
9658;DHT22;4867;48.112;11.622;2024-02-21T08:52:54;7.80;99.90
9658;DHT22;4867;48.112;11.622;2024-02-21T08:55:22;7.90;99.90
9658;DHT22;4867;48.112;11.622;2024-02-21T08:57:49;7.90;99.90
9658;DHT22;4867;48.112;11.622;2024-02-21T09:00:17;8.00;99.90
9658;DHT22;4867;48.112;11.622;2024-02-21T09:02:45;8.00;99.90
9658;DHT22;4867;48.112;11.622;2024-02-21T09:05:12;8.10;99.90
9658;DHT22;4867;48.112;11.622;2024-02-21T09:07:40;8.20;99.90
9658;DHT22;4867;48.112;11.622;2024-02-21T09:10:08;8.30;99.90
9658;DHT22;4867;48.112;11.622;2024-02-21T09:12:36;8.40;99.90
9658;DHT22;4867;48.112;11.622;2024-02-21T09:15:04;8.40;99.90
9658;DHT22;4867;48.112;11.622;2024-02-21T09:17:32;8.50;99.90
9658;DHT22;4867;48.112;11.622;2024-02-21T09:20:01;8.60;99.90
9658;DHT22;4867;48.112;11.622;2024-02-21T09:22:31;8.70;99.90
9658;DHT22;4867;48.112;11.622;2024-02-21T09:25:02;8.70;99.90
9658;DHT22;4867;48.112;11.622;2024-02-21T09:27:31;8.80;99.90
9658;DHT22;4867;48.112;11.622;2024-02-21T09:29:59;8.80;99.90
9658;DHT22;4867;48.112;11.622;2024-02-21T09:32:27;8.90;99.90
9658;DHT22;4867;48.112;11.622;2024-02-21T09:34:56;9.10;99.90
9658;DHT22;4867;48.112;11.622;2024-02-21T09:37:28;9.20;99.90
9658;DHT22;4867;48.112;11.622;2024-02-21T09:39:58;9.20;99.90
9658;DHT22;4867;48.112;11.622;2024-02-21T09:42:41;9.20;99.90
9658;DHT22;4867;48.112;11.622;2024-02-21T09:45:23;9.20;99.90
9658;DHT22;4867;48.112;11.622;2024-02-21T09:50:30;9.30;99.90
9658;DHT22;4867;48.112;11.622;2024-02-21T09:53:00;9.40;99.90
9658;DHT22;4867;48.112;11.622;2024-02-21T09:55:32;9.60;99.90
9658;DHT22;4867;48.112;11.622;2024-02-21T09:58:02;9.70;99.90
9658;DHT22;4867;48.112;11.622;2024-02-21T10:00:31;9.80;99.90
9658;DHT22;4867;48.112;11.622;2024-02-21T10:03:01;9.90;99.90
9658;DHT22;4867;48.112;11.622;2024-02-21T10:05:28;10.00;99.90
9658;DHT22;4867;48.112;11.622;2024-02-21T10:07:56;10.10;99.90
9658;DHT22;4867;48.112;11.622;2024-02-21T10:10:24;10.10;99.90
9658;DHT22;4867;48.112;11.622;2024-02-21T10:12:54;10.20;99.90
9658;DHT22;4867;48.112;11.622;2024-02-21T10:25:54;10.20;99.90
9658;DHT22;4867;48.112;11.622;2024-02-21T10:28:23;10.60;99.90
9658;DHT22;4867;48.112;11.622;2024-02-21T10:30:52;10.60;99.90
9658;DHT22;4867;48.112;11.622;2024-02-21T10:33:19;10.70;99.90
9658;DHT22;4867;48.112;11.622;2024-02-21T10:35:48;10.70;99.90
9658;DHT22;4867;48.112;11.622;2024-02-21T10:38:17;10.80;99.90
9658;DHT22;4867;48.112;11.622;2024-02-21T10:40:46;11.00;99.90
9658;DHT22;4867;48.112;11.622;2024-02-21T10:43:16;11.10;99.90
9658;DHT22;4867;48.112;11.622;2024-02-21T10:45:47;11.30;99.90
9658;DHT22;4867;48.112;11.622;2024-02-21T10:48:15;11.40;99.90
9658;DHT22;4867;48.112;11.622;2024-02-21T10:51:17;11.50;99.90
9658;DHT22;4867;48.112;11.622;2024-02-21T10:54:02;11.50;99.90
9658;DHT22;4867;48.112;11.622;2024-02-21T10:56:31;11.60;99.90
9658;DHT22;4867;48.112;11.622;2024-02-21T10:59:04;11.70;99.90
9658;DHT22;4867;48.112;11.622;2024-02-21T11:01:33;11.70;99.90
9658;DHT22;4867;48.112;11.622;2024-02-21T11:04:05;11.80;99.90
9658;DHT22;4867;48.112;11.622;2024-02-21T11:06:35;12.00;99.90
9658;DHT22;4867;48.112;11.622;2024-02-21T11:09:04;12.00;99.90
9658;DHT22;4867;48.112;11.622;2024-02-21T11:11:35;12.10;99.90
9658;DHT22;4867;48.112;11.622;2024-02-21T11:14:20;12.10;99.90
9658;DHT22;4867;48.112;11.622;2024-02-21T11:16:48;12.20;99.90
9658;DHT22;4867;48.112;11.622;2024-02-21T11:19:21;12.20;99.90
9658;DHT22;4867;48.112;11.622;2024-02-21T11:21:51;12.40;99.90
9658;DHT22;4867;48.112;11.622;2024-02-21T11:24:32;12.40;99.90
9658;DHT22;4867;48.112;11.622;2024-02-21T11:27:16;12.50;99.90
9658;DHT22;4867;48.112;11.622;2024-02-21T11:29:47;12.70;99.80
9658;DHT22;4867;48.112;11.622;2024-02-21T11:32:17;12.80;99.90
9658;DHT22;4867;48.112;11.622;2024-02-21T11:35:01;12.90;99.90
9658;DHT22;4867;48.112;11.622;2024-02-21T11:37:32;13.00;99.00
9658;DHT22;4867;48.112;11.622;2024-02-21T11:40:07;13.20;99.90
9658;DHT22;4867;48.112;11.622;2024-02-21T11:42:37;13.30;99.20
9658;DHT22;4867;48.112;11.622;2024-02-21T11:45:06;13.30;99.60
9658;DHT22;4867;48.112;11.622;2024-02-21T11:47:33;13.40;99.90
9658;DHT22;4867;48.112;11.622;2024-02-21T11:50:01;13.50;99.90
9658;DHT22;4867;48.112;11.622;2024-02-21T11:52:30;13.50;99.90
9658;DHT22;4867;48.112;11.622;2024-02-21T11:54:58;13.60;98.70
9658;DHT22;4867;48.112;11.622;2024-02-21T11:57:32;13.50;97.80
9658;DHT22;4867;48.112;11.622;2024-02-21T11:59:59;13.50;98.30
9658;DHT22;4867;48.112;11.622;2024-02-21T12:02:37;13.40;97.70
9658;DHT22;4867;48.112;11.622;2024-02-21T12:05:04;13.30;97.80
9658;DHT22;4867;48.112;11.622;2024-02-21T12:07:33;13.40;97.40
9658;DHT22;4867;48.112;11.622;2024-02-21T12:10:01;13.50;97.50
9658;DHT22;4867;48.112;11.622;2024-02-21T12:12:28;13.50;97.90
9658;DHT22;4867;48.112;11.622;2024-02-21T12:14:56;13.50;96.70
9658;DHT22;4867;48.112;11.622;2024-02-21T12:17:26;13.30;97.40
9658;DHT22;4867;48.112;11.622;2024-02-21T12:19:54;13.40;97.60
9658;DHT22;4867;48.112;11.622;2024-02-21T12:22:25;13.50;96.00
9658;DHT22;4867;48.112;11.622;2024-02-21T12:24:53;13.60;97.10
9658;DHT22;4867;48.112;11.622;2024-02-21T12:27:22;13.70;96.50
9658;DHT22;4867;48.112;11.622;2024-02-21T12:29:51;13.70;96.20
9658;DHT22;4867;48.112;11.622;2024-02-21T12:32:18;13.70;96.60
9658;DHT22;4867;48.112;11.622;2024-02-21T12:34:46;13.70;96.70
9658;DHT22;4867;48.112;11.622;2024-02-21T12:37:22;13.70;94.80
9658;DHT22;4867;48.112;11.622;2024-02-21T12:39:51;13.70;95.10
9658;DHT22;4867;48.112;11.622;2024-02-21T12:42:19;13.70;95.20
9658;DHT22;4867;48.112;11.622;2024-02-21T12:44:46;13.80;94.70
9658;DHT22;4867;48.112;11.622;2024-02-21T12:47:14;13.90;95.60
9658;DHT22;4867;48.112;11.622;2024-02-21T12:49:42;14.10;96.20
9658;DHT22;4867;48.112;11.622;2024-02-21T12:52:12;14.20;94.90
9658;DHT22;4867;48.112;11.622;2024-02-21T12:54:40;14.20;93.10
9658;DHT22;4867;48.112;11.622;2024-02-21T12:57:09;14.20;92.60
9658;DHT22;4867;48.112;11.622;2024-02-21T12:59:36;14.20;93.90
9658;DHT22;4867;48.112;11.622;2024-02-21T13:02:04;14.30;94.10
9658;DHT22;4867;48.112;11.622;2024-02-21T13:04:32;14.30;92.10
9658;DHT22;4867;48.112;11.622;2024-02-21T13:07:00;14.20;93.00
9658;DHT22;4867;48.112;11.622;2024-02-21T13:09:27;14.20;92.40
9658;DHT22;4867;48.112;11.622;2024-02-21T13:11:54;14.20;92.20
9658;DHT22;4867;48.112;11.622;2024-02-21T13:14:23;14.20;91.40
9658;DHT22;4867;48.112;11.622;2024-02-21T13:16:50;14.10;91.20
9658;DHT22;4867;48.112;11.622;2024-02-21T13:19:18;14.10;93.00
9658;DHT22;4867;48.112;11.622;2024-02-21T13:21:46;14.10;92.70
9658;DHT22;4867;48.112;11.622;2024-02-21T13:24:14;14.10;93.50
9658;DHT22;4867;48.112;11.622;2024-02-21T13:26:41;14.20;92.00
9658;DHT22;4867;48.112;11.622;2024-02-21T13:29:09;14.20;90.40
9658;DHT22;4867;48.112;11.622;2024-02-21T13:31:36;14.20;92.00
9658;DHT22;4867;48.112;11.622;2024-02-21T13:34:04;14.20;92.70
9658;DHT22;4867;48.112;11.622;2024-02-21T13:36:33;14.30;91.40
9658;DHT22;4867;48.112;11.622;2024-02-21T13:39:00;14.20;91.40
9658;DHT22;4867;48.112;11.622;2024-02-21T13:41:28;14.30;92.00
9658;DHT22;4867;48.112;11.622;2024-02-21T13:43:57;14.30;92.40
9658;DHT22;4867;48.112;11.622;2024-02-21T13:46:24;14.40;90.90
9658;DHT22;4867;48.112;11.622;2024-02-21T13:49:00;14.50;91.10
9658;DHT22;4867;48.112;11.622;2024-02-21T13:51:29;14.30;89.30
9658;DHT22;4867;48.112;11.622;2024-02-21T13:53:56;14.30;87.60
9658;DHT22;4867;48.112;11.622;2024-02-21T13:56:23;14.30;87.50
9658;DHT22;4867;48.112;11.622;2024-02-21T13:58:51;14.30;87.30
9658;DHT22;4867;48.112;11.622;2024-02-21T14:01:19;14.20;87.00
9658;DHT22;4867;48.112;11.622;2024-02-21T14:03:46;14.20;86.30
9658;DHT22;4867;48.112;11.622;2024-02-21T14:06:13;14.20;88.40
9658;DHT22;4867;48.112;11.622;2024-02-21T14:08:41;14.20;87.50
9658;DHT22;4867;48.112;11.622;2024-02-21T14:11:08;14.20;86.60
9658;DHT22;4867;48.112;11.622;2024-02-21T14:13:36;14.20;84.20
9658;DHT22;4867;48.112;11.622;2024-02-21T14:16:09;14.20;82.50
9658;DHT22;4867;48.112;11.622;2024-02-21T14:18:38;14.10;81.10
9658;DHT22;4867;48.112;11.622;2024-02-21T14:21:08;14.10;84.00
9658;DHT22;4867;48.112;11.622;2024-02-21T14:23:39;14.20;85.90
9658;DHT22;4867;48.112;11.622;2024-02-21T14:26:06;14.20;85.00
9658;DHT22;4867;48.112;11.622;2024-02-21T14:28:34;14.20;82.10
9658;DHT22;4867;48.112;11.622;2024-02-21T14:31:02;14.10;84.10
9658;DHT22;4867;48.112;11.622;2024-02-21T14:33:31;14.20;88.00
9658;DHT22;4867;48.112;11.622;2024-02-21T14:35:59;14.10;88.30
9658;DHT22;4867;48.112;11.622;2024-02-21T14:38:26;14.20;89.30
9658;DHT22;4867;48.112;11.622;2024-02-21T14:40:55;14.20;89.60
9658;DHT22;4867;48.112;11.622;2024-02-21T14:43:23;14.30;87.50
9658;DHT22;4867;48.112;11.622;2024-02-21T14:45:50;14.30;89.30
9658;DHT22;4867;48.112;11.622;2024-02-21T14:48:18;14.30;89.40
9658;DHT22;4867;48.112;11.622;2024-02-21T14:50:45;14.30;89.60
9658;DHT22;4867;48.112;11.622;2024-02-21T14:53:13;14.30;88.60
9658;DHT22;4867;48.112;11.622;2024-02-21T14:55:41;14.30;89.50
9658;DHT22;4867;48.112;11.622;2024-02-21T14:58:09;14.30;90.50
9658;DHT22;4867;48.112;11.622;2024-02-21T15:00:37;14.30;89.80
9658;DHT22;4867;48.112;11.622;2024-02-21T15:03:06;14.20;89.00
9658;DHT22;4867;48.112;11.622;2024-02-21T15:05:34;14.30;90.00
9658;DHT22;4867;48.112;11.622;2024-02-21T15:08:01;14.30;90.10
9658;DHT22;4867;48.112;11.622;2024-02-21T15:10:29;14.30;90.40
9658;DHT22;4867;48.112;11.622;2024-02-21T15:12:57;14.20;90.30
9658;DHT22;4867;48.112;11.622;2024-02-21T15:15:27;14.10;89.20
9658;DHT22;4867;48.112;11.622;2024-02-21T15:17:54;14.10;88.40
9658;DHT22;4867;48.112;11.622;2024-02-21T15:20:22;14.00;89.40
9658;DHT22;4867;48.112;11.622;2024-02-21T15:22:49;14.00;89.40
9658;DHT22;4867;48.112;11.622;2024-02-21T15:25:17;13.90;88.80
9658;DHT22;4867;48.112;11.622;2024-02-21T15:27:45;13.90;90.00
9658;DHT22;4867;48.112;11.622;2024-02-21T15:30:13;13.80;90.40
9658;DHT22;4867;48.112;11.622;2024-02-21T15:32:42;13.80;90.80
9658;DHT22;4867;48.112;11.622;2024-02-21T15:35:12;13.80;91.10
9658;DHT22;4867;48.112;11.622;2024-02-21T15:37:40;13.70;90.90
9658;DHT22;4867;48.112;11.622;2024-02-21T15:40:08;13.60;90.70
9658;DHT22;4867;48.112;11.622;2024-02-21T15:42:36;13.50;90.20
9658;DHT22;4867;48.112;11.622;2024-02-21T15:45:04;13.50;90.20
9658;DHT22;4867;48.112;11.622;2024-02-21T15:47:32;13.40;91.10
9658;DHT22;4867;48.112;11.622;2024-02-21T15:50:06;13.30;91.60
9658;DHT22;4867;48.112;11.622;2024-02-21T15:52:34;13.20;92.00
9658;DHT22;4867;48.112;11.622;2024-02-21T15:55:02;13.20;92.00
9658;DHT22;4867;48.112;11.622;2024-02-21T15:57:29;13.10;92.50
9658;DHT22;4867;48.112;11.622;2024-02-21T15:59:59;13.00;91.50
9658;DHT22;4867;48.112;11.622;2024-02-21T16:02:26;13.00;91.50
9658;DHT22;4867;48.112;11.622;2024-02-21T16:04:54;13.00;91.80
9658;DHT22;4867;48.112;11.622;2024-02-21T16:07:23;12.90;91.80
9658;DHT22;4867;48.112;11.622;2024-02-21T16:09:51;12.90;91.80
9658;DHT22;4867;48.112;11.622;2024-02-21T16:12:18;12.80;92.10
9658;DHT22;4867;48.112;11.622;2024-02-21T16:14:46;12.80;92.30
9658;DHT22;4867;48.112;11.622;2024-02-21T16:17:15;12.80;92.60
9658;DHT22;4867;48.112;11.622;2024-02-21T16:19:42;12.70;92.60
9658;DHT22;4867;48.112;11.622;2024-02-21T16:22:10;12.60;92.20
9658;DHT22;4867;48.112;11.622;2024-02-21T16:24:37;12.60;92.70